Time;durP1;ratioP1;P1;durP2;ratioP2;P2;SDS_P1;SDS_P2;PMS_P1;PMS_P2;Temp;Humidity;BMP_temperature;BMP_pressure;BME280_temperature;BME280_humidity;BME280_pressure;Samples;Min_cycle;Max_cycle;Signal;HPM_P1;HPM_P2
2021/05/14 00:02:01;;;;;;;8.10;5.70;;;;;;;14.03;69.66;98626.64;1784384;79;20998;-41
2021/05/14 00:04:28;;;;;;;8.25;5.75;;;;;;;14.04;69.61;98628.94;1776801;79;21074;-41
2021/05/14 00:06:55;;;;;;;7.50;5.33;;;;;;;14.05;69.63;98629.14;1788487;79;21489;-40
2021/05/14 00:09:23;;;;;;;7.85;5.03;;;;;;;14.09;69.56;98631.83;1797911;79;20912;-41
2021/05/14 00:11:50;;;;;;;7.50;5.25;;;;;;;14.17;69.24;98630.04;1782335;79;21122;-41
2021/05/14 00:14:16;;;;;;;9.50;5.50;;;;;;;14.29;68.97;98626.81;1777129;79;21555;-41
2021/05/14 00:16:43;;;;;;;7.45;4.95;;;;;;;14.35;68.69;98629.31;1798228;79;21030;-41
2021/05/14 00:19:09;;;;;;;6.17;5.45;;;;;;;14.37;68.62;98628.95;1792684;79;21003;-41
2021/05/14 00:21:37;;;;;;;7.78;5.83;;;;;;;14.42;68.43;98625.02;1785331;79;21066;-41
2021/05/14 00:24:07;;;;;;;9.10;5.70;;;;;;;14.42;68.23;98622.28;1787823;79;20971;-41
2021/05/14 00:26:35;;;;;;;8.48;4.95;;;;;;;14.39;68.21;98618.39;1776581;79;21035;-41
2021/05/14 00:29:02;;;;;;;8.90;4.62;;;;;;;14.39;68.10;98616.25;1800213;79;21080;-41
2021/05/14 00:31:28;;;;;;;6.70;5.12;;;;;;;14.42;68.06;98612.73;1785768;79;20971;-41
2021/05/14 00:33:55;;;;;;;8.33;5.30;;;;;;;14.42;67.98;98609.42;1798234;79;21003;-41
2021/05/14 00:36:23;;;;;;;7.95;5.53;;;;;;;14.40;68.05;98616.44;1783355;79;20920;-41
2021/05/14 00:38:50;;;;;;;8.75;5.15;;;;;;;14.37;68.08;98619.98;1776186;80;21536;-41
2021/05/14 00:41:17;;;;;;;6.08;5.10;;;;;;;14.35;68.04;98612.95;1781133;79;21078;-41
2021/05/14 00:43:44;;;;;;;8.15;4.92;;;;;;;14.35;68.16;98618.41;1785683;79;20995;-40
2021/05/14 00:46:11;;;;;;;10.60;6.03;;;;;;;14.34;68.24;98616.84;1795485;79;21006;-41
2021/05/14 00:48:38;;;;;;;9.03;6.03;;;;;;;14.33;68.22;98613.14;1796390;79;21050;-40
2021/05/14 00:51:05;;;;;;;7.50;5.45;;;;;;;14.31;68.30;98607.34;1791199;79;21481;-40
2021/05/14 00:53:32;;;;;;;6.22;5.45;;;;;;;14.28;68.36;98596.63;1781447;79;21048;-41
2021/05/14 00:55:59;;;;;;;6.35;5.62;;;;;;;14.27;68.41;98600.56;1782021;79;21009;-41
2021/05/14 00:58:26;;;;;;;8.80;6.05;;;;;;;14.27;68.45;98601.92;1781242;79;20951;-41
2021/05/14 01:00:52;;;;;;;8.25;5.45;;;;;;;14.25;68.54;98605.63;1800871;77;21022;-41
2021/05/14 01:03:19;;;;;;;6.58;5.20;;;;;;;14.27;68.46;98603.88;1811462;77;20987;-41
2021/05/14 01:05:46;;;;;;;5.72;5.15;;;;;;;14.30;68.29;98605.20;1799397;79;21666;-41
2021/05/14 01:08:13;;;;;;;6.40;5.40;;;;;;;14.38;67.99;98599.11;1805108;79;21064;-41
2021/05/14 01:10:41;;;;;;;5.65;5.05;;;;;;;14.41;67.67;98598.91;1810118;79;21070;-40
2021/05/14 01:13:07;;;;;;;5.62;5.10;;;;;;;14.36;67.47;98596.03;1783786;79;21038;-41
2021/05/14 01:15:34;;;;;;;8.08;5.58;;;;;;;14.34;67.28;98598.34;1787999;79;21564;-41
2021/05/14 01:18:01;;;;;;;10.65;5.03;;;;;;;14.29;67.31;98596.83;1790578;79;21755;-41
2021/05/14 01:20:30;;;;;;;5.65;4.92;;;;;;;14.30;67.52;98597.60;1805795;79;20944;-41
2021/05/14 01:22:57;;;;;;;7.87;5.25;;;;;;;14.31;67.51;98594.48;1787218;79;21517;-41
2021/05/14 01:25:24;;;;;;;6.95;5.17;;;;;;;14.35;67.37;98597.95;1792333;79;21097;-40
2021/05/14 01:27:52;;;;;;;7.62;5.55;;;;;;;14.34;67.25;98601.84;1803734;79;21549;-41
2021/05/14 01:30:21;;;;;;;5.78;5.12;;;;;;;14.30;67.28;98591.56;1785786;79;21066;-41
2021/05/14 01:32:47;;;;;;;8.05;5.60;;;;;;;14.27;67.19;98596.47;1783530;79;20923;-41
2021/05/14 01:35:14;;;;;;;6.20;4.70;;;;;;;14.24;67.22;98596.48;1783787;79;21356;-40
2021/05/14 01:37:41;;;;;;;5.62;4.85;;;;;;;14.24;67.18;98598.63;1806555;79;20959;-41
2021/05/14 01:40:09;;;;;;;8.00;5.37;;;;;;;14.23;67.10;98584.05;1803269;79;20998;-41
2021/05/14 01:42:45;;;;;;;9.75;5.30;;;;;;;14.19;67.11;98588.73;1789363;79;21058;-40
2021/05/14 01:45:13;;;;;;;7.78;5.33;;;;;;;14.14;67.19;98587.20;1796783;79;20970;-41
2021/05/14 01:47:41;;;;;;;7.37;5.75;;;;;;;14.07;67.24;98580.47;1791654;77;21626;-41
2021/05/14 01:50:09;;;;;;;8.90;4.58;;;;;;;14.02;67.33;98582.84;1811283;79;20947;-40
2021/05/14 01:52:37;;;;;;;7.95;5.25;;;;;;;13.99;67.38;98583.04;1813486;77;20931;-41
2021/05/14 01:55:07;;;;;;;6.80;5.12;;;;;;;14.01;67.40;98582.06;1789798;79;21615;-40
2021/05/14 01:57:33;;;;;;;6.65;5.25;;;;;;;14.01;67.42;98577.97;1800668;79;21050;-41
2021/05/14 02:00:00;;;;;;;7.12;5.47;;;;;;;13.98;67.50;98582.87;1804392;79;20990;-41
2021/05/14 02:02:26;;;;;;;8.63;5.87;;;;;;;13.92;67.59;98582.52;1784577;79;21051;-41
2021/05/14 02:04:53;;;;;;;8.25;5.42;;;;;;;13.84;67.72;98583.75;1780293;79;21555;-41
2021/05/14 02:07:20;;;;;;;6.83;5.20;;;;;;;13.81;67.81;98584.53;1798824;79;21116;-41
2021/05/14 02:09:47;;;;;;;7.85;5.37;;;;;;;13.80;67.88;98583.56;1807411;79;20948;-41
2021/05/14 02:12:14;;;;;;;7.47;5.67;;;;;;;13.77;67.92;98576.20;1786971;79;20915;-41
2021/05/14 02:14:40;;;;;;;8.83;5.80;;;;;;;13.72;67.99;98577.98;1787084;79;21596;-41
2021/05/14 02:17:08;;;;;;;6.67;5.58;;;;;;;13.68;68.03;98575.87;1786405;79;20999;-41
2021/05/14 02:19:36;;;;;;;6.42;5.35;;;;;;;13.61;68.12;98573.95;1786465;79;21076;-41
2021/05/14 02:22:06;;;;;;;8.13;4.83;;;;;;;13.60;68.12;98577.09;1792888;79;21401;-41
2021/05/14 02:24:33;;;;;;;6.92;5.40;;;;;;;13.62;67.98;98574.73;1801681;79;20975;-40
2021/05/14 02:27:00;;;;;;;9.20;5.30;;;;;;;13.62;67.89;98573.38;1788837;77;21086;-41
2021/05/14 02:29:27;;;;;;;7.30;5.28;;;;;;;13.62;67.76;98570.06;1791954;80;21033;-41
2021/05/14 02:31:53;;;;;;;9.90;5.53;;;;;;;13.60;67.65;98566.20;1804936;79;21054;-41
2021/05/14 02:34:20;;;;;;;6.53;4.87;;;;;;;13.56;67.66;98565.42;1728648;83;20993;-41
2021/05/14 02:36:47;;;;;;;5.87;5.10;;;;;;;13.54;67.65;98567.78;1767030;79;21018;-41
2021/05/14 02:39:14;;;;;;;6.55;5.60;;;;;;;13.48;67.79;98561.98;1780057;80;20982;-41
2021/05/14 02:41:40;;;;;;;7.45;5.10;;;;;;;13.39;67.99;98555.61;1789211;80;20993;-41
2021/05/14 02:44:07;;;;;;;8.43;5.33;;;;;;;13.31;68.25;98558.16;1779160;80;21778;-41
2021/05/14 02:46:34;;;;;;;8.28;5.58;;;;;;;13.27;68.42;98556.63;1759598;81;20969;-41
2021/05/14 02:49:00;;;;;;;6.87;4.92;;;;;;;13.21;68.55;98564.46;1772319;80;21049;-41
2021/05/14 02:51:27;;;;;;;6.47;4.95;;;;;;;13.24;68.62;98560.94;1761316;80;20993;-41
2021/05/14 02:53:54;;;;;;;7.35;6.00;;;;;;;13.34;68.47;98559.33;1784938;79;20993;-41
2021/05/14 02:56:21;;;;;;;7.20;5.58;;;;;;;13.31;68.45;98560.89;1780923;79;21529;-41
2021/05/14 02:58:47;;;;;;;7.37;6.40;;;;;;;13.26;68.63;98557.25;1760689;80;21899;-41
2021/05/14 03:01:14;;;;;;;8.10;6.35;;;;;;;13.24;68.74;98560.94;1770857;80;21587;-41
2021/05/14 03:03:41;;;;;;;9.35;5.75;;;;;;;13.21;68.90;98554.16;1764787;80;21567;-40
2021/05/14 03:06:07;;;;;;;9.48;6.28;;;;;;;13.18;69.03;98551.63;1781107;80;21013;-41
2021/05/14 03:08:35;;;;;;;7.50;6.33;;;;;;;13.17;69.21;98558.23;1733606;81;23099;-41
2021/05/14 03:11:02;;;;;;;8.60;6.67;;;;;;;13.13;69.45;98557.48;1753347;81;21075;-41
2021/05/14 03:13:29;;;;;;;7.62;5.95;;;;;;;13.09;69.72;98553.97;1784995;79;20963;-41
2021/05/14 03:15:56;;;;;;;8.73;6.37;;;;;;;13.06;69.97;98553.41;1787401;79;20991;-41
2021/05/14 03:18:22;;;;;;;7.92;5.70;;;;;;;13.11;70.14;98553.59;1785450;79;21087;-41
2021/05/14 03:20:49;;;;;;;10.20;6.45;;;;;;;13.16;70.07;98550.48;1784448;79;21047;-40
2021/05/14 03:23:16;;;;;;;7.80;6.80;;;;;;;13.19;70.16;98559.98;1783304;79;21572;-41
2021/05/14 03:25:43;;;;;;;6.75;5.80;;;;;;;13.18;70.16;98556.30;1786954;79;21062;-41
2021/05/14 03:28:09;;;;;;;9.38;5.65;;;;;;;13.19;70.20;98569.52;1769447;79;21094;-41
2021/05/14 03:30:36;;;;;;;9.70;6.28;;;;;;;13.26;70.11;98572.80;1792109;79;21101;-41
2021/05/14 03:33:02;;;;;;;9.40;6.65;;;;;;;13.30;70.08;98571.61;1793853;79;21818;-41
2021/05/14 03:35:29;;;;;;;11.48;6.78;;;;;;;13.30;70.14;98570.25;1790339;79;21046;-41
2021/05/14 03:37:55;;;;;;;7.67;6.20;;;;;;;13.31;70.19;98573.75;1788193;79;21495;-40
2021/05/14 03:42:59;;;;;;;9.53;6.28;;;;;;;13.34;70.25;98576.45;1784903;78;21564;-40
2021/05/14 03:45:25;;;;;;;9.43;6.53;;;;;;;13.31;70.33;98573.14;1806888;79;21041;-40
2021/05/14 03:47:57;;;;;;;14.95;6.72;;;;;;;13.30;70.44;98572.97;1785984;79;20986;-40
2021/05/14 03:50:31;;;;;;;9.70;6.40;;;;;;;13.34;70.48;98568.28;1777023;79;21881;-41
2021/05/14 03:52:56;;;;;;;11.10;6.17;;;;;;;13.42;70.46;98572.51;1784892;79;21075;-40
2021/05/14 03:55:23;;;;;;;10.28;6.60;;;;;;;13.46;70.45;98579.29;1783521;79;21027;-40
2021/05/14 03:57:50;;;;;;;9.70;6.25;;;;;;;13.53;70.27;98573.04;1769595;80;21054;-41
2021/05/14 04:00:18;;;;;;;6.55;5.28;;;;;;;13.61;70.07;98570.45;1761226;79;21013;-41
2021/05/14 04:02:44;;;;;;;8.40;5.62;;;;;;;13.69;69.81;98567.89;1747377;81;21010;-41
2021/05/14 04:05:12;;;;;;;9.03;6.03;;;;;;;13.83;69.35;98558.26;1744676;81;21068;-41
2021/05/14 04:07:38;;;;;;;8.23;6.03;;;;;;;13.95;68.84;98556.41;1795661;79;21084;-41
2021/05/14 04:10:20;;;;;;;8.85;6.22;;;;;;;14.03;68.44;98554.42;1798990;79;21571;-41
2021/05/14 04:15:29;;;;;;;6.70;5.60;;;;;;;14.14;68.06;98565.41;1795287;79;21092;-41
2021/05/14 04:17:55;;;;;;;7.25;5.62;;;;;;;14.23;67.65;98568.44;1794982;79;21545;-41
2021/05/14 04:20:23;;;;;;;10.35;5.85;;;;;;;14.28;67.29;98561.19;1800828;79;21105;-41
2021/05/14 04:22:51;;;;;;;6.92;5.90;;;;;;;14.32;67.20;98566.05;1793712;79;21048;-41
2021/05/14 04:25:18;;;;;;;7.85;5.83;;;;;;;14.39;67.21;98567.17;1795639;77;20951;-41
2021/05/14 04:27:45;;;;;;;9.15;6.90;;;;;;;14.42;66.93;98566.38;1795757;79;20967;-41
2021/05/14 04:30:14;;;;;;;10.05;5.60;;;;;;;14.45;66.76;98562.83;1796061;79;21607;-41
2021/05/14 04:32:40;;;;;;;9.28;5.97;;;;;;;14.48;66.57;98556.56;1795365;79;21058;-40
2021/05/14 04:35:08;;;;;;;9.40;6.50;;;;;;;14.52;66.46;98565.51;1799975;78;21070;-41
2021/05/14 04:37:35;;;;;;;8.30;6.10;;;;;;;14.53;66.32;98553.39;1796151;79;21026;-41
2021/05/14 04:40:03;;;;;;;11.25;6.33;;;;;;;14.50;66.27;98557.72;1760433;80;21362;-41
2021/05/14 04:42:29;;;;;;;8.38;6.15;;;;;;;14.48;66.19;98555.97;1757566;80;21579;-41
2021/05/14 04:44:56;;;;;;;8.93;6.12;;;;;;;14.49;66.10;98544.48;1760314;80;20974;-41
2021/05/14 04:47:23;;;;;;;6.75;5.70;;;;;;;14.51;66.15;98544.86;1747699;81;21123;-41
2021/05/14 04:49:49;;;;;;;8.30;6.65;;;;;;;14.49;66.12;98545.25;1799233;79;20979;-41
2021/05/14 04:52:19;;;;;;;8.05;6.30;;;;;;;14.47;66.25;98546.27;1794825;79;20963;-41
2021/05/14 04:54:46;;;;;;;10.58;6.17;;;;;;;14.49;66.38;98549.94;1799508;79;20987;-41
2021/05/14 04:57:13;;;;;;;9.55;5.78;;;;;;;14.48;66.28;98547.02;1797459;79;21631;-41
2021/05/14 04:59:41;;;;;;;7.67;5.92;;;;;;;14.48;66.44;98541.56;1796500;79;21232;-41
2021/05/14 05:02:08;;;;;;;8.43;6.47;;;;;;;14.56;66.34;98537.60;1803419;79;20964;-41
2021/05/14 05:04:36;;;;;;;8.68;6.92;;;;;;;14.62;66.38;98535.37;1794074;79;21034;-41
2021/05/14 05:07:04;;;;;;;11.78;6.90;;;;;;;14.68;66.13;98528.88;1797084;79;21308;-41
2021/05/14 05:09:32;;;;;;;9.15;6.03;;;;;;;14.43;66.00;98484.73;1797312;79;21014;-41
2021/05/14 05:14:28;;;;;;;10.13;6.80;;;;;;;14.87;66.11;98521.45;1870593;76;22757;-41
2021/05/14 05:16:55;;;;;;;9.68;6.60;;;;;;;14.80;66.02;98518.82;1775712;78;21769;-41
2021/05/14 05:19:22;;;;;;;8.63;6.70;;;;;;;14.86;65.98;98517.20;1809750;78;21080;-41
2021/05/14 05:21:49;;;;;;;8.95;7.20;;;;;;;14.93;65.59;98523.14;1806605;78;21018;-41
2021/05/14 05:24:16;;;;;;;11.25;6.08;;;;;;;15.01;65.42;98525.38;1801932;78;20939;-41
2021/05/14 05:26:43;;;;;;;9.43;6.72;;;;;;;15.15;65.16;98528.54;1779503;80;21613;-41
2021/05/14 05:29:10;;;;;;;9.70;6.50;;;;;;;15.28;65.16;98525.44;1781482;79;21002;-41
2021/05/14 05:31:37;;;;;;;7.80;6.53;;;;;;;15.41;64.92;98529.73;1777563;79;21234;-41
2021/05/14 05:34:03;;;;;;;8.30;6.58;;;;;;;15.51;64.13;98517.92;1781409;79;21021;-41
2021/05/14 05:36:30;;;;;;;11.18;7.15;;;;;;;15.61;63.70;98515.03;1757481;81;21006;-41
2021/05/14 05:38:57;;;;;;;12.00;6.25;;;;;;;15.74;63.32;98522.05;1763942;80;21090;-41
2021/05/14 05:41:23;;;;;;;8.85;6.53;;;;;;;15.90;63.09;98520.83;1775239;80;21086;-41
2021/05/14 05:43:50;;;;;;;8.85;6.60;;;;;;;16.09;62.77;98508.41;1787402;80;21720;-41
2021/05/14 05:46:17;;;;;;;7.97;6.42;;;;;;;16.23;61.94;98518.33;1780445;80;21079;-41
2021/05/14 05:48:46;;;;;;;9.20;6.50;;;;;;;16.33;61.84;98514.05;1774724;79;21065;-41
2021/05/14 05:51:14;;;;;;;9.48;5.87;;;;;;;16.40;61.25;98513.94;1774837;79;21090;-41
2021/05/14 05:53:41;;;;;;;10.88;6.92;;;;;;;16.48;60.99;98514.56;1780165;79;21527;-41
2021/05/14 05:56:08;;;;;;;13.00;6.78;;;;;;;16.52;60.80;98513.89;1768505;79;21046;-41
2021/05/14 05:58:35;;;;;;;9.00;6.70;;;;;;;16.52;60.65;98510.56;1781150;79;21042;-41
2021/05/14 06:01:03;;;;;;;8.98;6.65;;;;;;;16.54;60.53;98511.52;1789002;79;21074;-41
2021/05/14 06:03:30;;;;;;;8.93;6.03;;;;;;;16.57;60.46;98509.90;1786990;79;21018;-41
2021/05/14 06:05:56;;;;;;;9.33;6.10;;;;;;;16.65;60.48;98510.77;1779027;79;21092;-41
2021/05/14 06:08:24;;;;;;;9.10;6.67;;;;;;;16.76;60.35;98503.69;1780404;79;21078;-41
2021/05/14 06:10:52;;;;;;;7.95;6.53;;;;;;;16.88;60.05;98509.33;1778261;79;21065;-41
2021/05/14 06:13:19;;;;;;;11.97;7.28;;;;;;;16.97;59.83;98506.02;1785646;79;20967;-41
2021/05/14 06:15:47;;;;;;;9.65;6.42;;;;;;;17.04;59.97;98506.48;1774767;80;21655;-41
2021/05/14 06:18:20;;;;;;;8.80;7.10;;;;;;;17.09;59.59;98500.50;1767372;79;20935;-41
2021/05/14 06:20:47;;;;;;;8.33;6.65;;;;;;;17.12;59.51;98494.17;1810850;78;21061;-41
2021/05/14 06:23:13;;;;;;;8.88;6.90;;;;;;;17.11;59.29;98500.24;1779827;80;21615;-42
2021/05/14 06:25:40;;;;;;;8.65;6.00;;;;;;;17.15;60.02;98501.53;1786243;79;21045;-41
2021/05/14 06:28:07;;;;;;;7.50;5.75;;;;;;;17.25;59.45;98497.79;1799648;78;20943;-41
2021/05/14 06:30:34;;;;;;;8.35;6.12;;;;;;;17.34;59.04;98497.98;1794724;79;20931;-41
2021/05/14 06:33:03;;;;;;;8.35;6.10;;;;;;;17.46;58.53;98500.66;1774916;79;20939;-41
2021/05/14 06:35:32;;;;;;;7.65;4.97;;;;;;;17.60;59.11;98503.11;1776304;80;21568;-41
2021/05/14 06:37:59;;;;;;;8.35;5.53;;;;;;;17.74;58.52;98497.29;1771849;80;21115;-41
2021/05/14 06:40:25;;;;;;;9.35;6.05;;;;;;;17.91;57.41;98498.08;1801355;78;21039;-41
2021/05/14 06:42:52;;;;;;;8.65;5.65;;;;;;;17.95;56.91;98500.90;1805584;78;20939;-41
2021/05/14 06:45:19;;;;;;;9.98;5.72;;;;;;;17.98;56.82;98500.63;1809295;78;21073;-41
2021/05/14 06:47:46;;;;;;;7.62;5.25;;;;;;;18.02;57.25;98504.05;1787294;80;21064;-41
2021/05/14 06:50:13;;;;;;;9.50;4.87;;;;;;;18.09;56.85;98497.80;1772494;80;21047;-42
2021/05/14 06:52:39;;;;;;;6.47;4.58;;;;;;;18.18;56.18;98495.81;1806180;78;21058;-42
2021/05/14 06:55:08;;;;;;;10.63;5.90;;;;;;;18.26;56.01;98488.93;1777547;79;21513;-42
2021/05/14 06:57:37;;;;;;;7.65;5.53;;;;;;;18.32;55.74;98485.84;1775220;79;21037;-42
2021/05/14 07:00:06;;;;;;;8.85;5.58;;;;;;;18.40;56.33;98482.30;1790535;79;21595;-43
2021/05/14 07:02:32;;;;;;;8.35;5.20;;;;;;;18.52;55.65;98478.24;1774323;79;21042;-42
2021/05/14 07:05:00;;;;;;;11.25;5.87;;;;;;;18.63;55.12;98474.64;1779532;79;21122;-42
2021/05/14 07:07:26;;;;;;;8.08;5.10;;;;;;;18.74;54.93;98465.31;1777186;79;21058;-42
2021/05/14 07:09:53;;;;;;;5.72;4.67;;;;;;;18.76;54.53;98460.16;1762096;80;21868;-42
2021/05/14 07:12:20;;;;;;;10.85;5.22;;;;;;;18.75;54.51;98465.48;1762246;80;21023;-42
2021/05/14 07:14:48;;;;;;;9.30;5.33;;;;;;;18.76;54.46;98462.91;1789251;79;20978;-42
2021/05/14 07:17:15;;;;;;;11.48;4.75;;;;;;;18.80;54.36;98455.34;1799656;79;20971;-42
2021/05/14 07:19:42;;;;;;;8.33;5.20;;;;;;;18.83;54.58;98459.34;1781800;79;21080;-42
2021/05/14 07:22:08;;;;;;;9.25;5.30;;;;;;;18.91;54.54;98466.80;1772729;80;21063;-42
2021/05/14 07:24:35;;;;;;;9.15;4.45;;;;;;;18.93;52.92;98460.24;1761172;80;21589;-42
2021/05/14 07:27:02;;;;;;;9.70;4.45;;;;;;;18.96;53.36;98461.53;1773208;80;20975;-42
2021/05/14 07:29:29;;;;;;;8.28;4.37;;;;;;;19.00;52.23;98457.30;1761529;80;21058;-42
2021/05/14 07:31:56;;;;;;;9.88;4.90;;;;;;;19.02;52.11;98460.39;1771644;80;21055;-42
2021/05/14 07:34:23;;;;;;;7.50;5.08;;;;;;;19.10;52.23;98458.97;1793117;80;21033;-42
2021/05/14 07:36:50;;;;;;;7.85;4.53;;;;;;;19.19;51.87;98454.95;1766130;80;21655;-42
2021/05/14 07:39:17;;;;;;;7.17;4.00;;;;;;;19.25;51.83;98464.20;1774238;80;21339;-42
2021/05/14 07:41:44;;;;;;;6.15;3.72;;;;;;;19.28;50.65;98462.54;1759480;81;21555;-42
2021/05/14 07:44:11;;;;;;;6.10;3.42;;;;;;;19.32;50.63;98461.22;1763977;81;21042;-42
2021/05/14 07:46:37;;;;;;;6.45;3.20;;;;;;;19.36;49.96;98459.16;1794087;80;21114;-43
2021/05/14 07:49:04;;;;;;;7.65;3.67;;;;;;;19.44;49.74;98453.63;1762744;81;21752;-45
2021/05/14 07:51:31;;;;;;;5.87;3.58;;;;;;;19.51;49.45;98464.38;1763878;81;21034;-43
2021/05/14 07:53:57;;;;;;;10.72;4.00;;;;;;;19.59;49.68;98462.80;1763599;81;21006;-43
2021/05/14 07:56:24;;;;;;;7.05;3.90;;;;;;;19.63;48.56;98471.70;1793474;80;20994;-42
2021/05/14 07:58:51;;;;;;;6.85;4.00;;;;;;;19.60;48.15;98469.84;1763929;81;21085;-42
2021/05/14 08:01:18;;;;;;;6.45;3.92;;;;;;;19.57;48.77;98463.83;1763240;81;21604;-42
2021/05/14 08:03:45;;;;;;;8.38;3.80;;;;;;;19.61;48.99;98474.11;1760245;80;21174;-42
2021/05/14 08:06:11;;;;;;;7.53;4.05;;;;;;;19.67;48.74;98461.34;1762771;80;21046;-42
2021/05/14 08:08:40;;;;;;;6.95;4.17;;;;;;;19.79;48.48;98457.83;1758913;80;21541;-42
2021/05/14 08:11:07;;;;;;;8.65;3.60;;;;;;;19.88;47.99;98448.28;1756013;80;21686;-42
2021/05/14 08:13:35;;;;;;;4.00;3.47;;;;;;;19.97;48.25;98453.87;1723301;80;21172;-42
2021/05/14 08:16:03;;;;;;;11.40;5.22;;;;;;;20.11;47.19;98457.52;1758182;81;21068;-42
2021/05/14 08:18:30;;;;;;;9.35;3.40;;;;;;;20.29;47.30;98454.92;1758475;81;21743;-42
2021/05/14 08:20:57;;;;;;;7.42;3.22;;;;;;;20.50;46.28;98458.17;1741401;81;21064;-42
2021/05/14 08:23:23;;;;;;;7.72;3.10;;;;;;;20.74;44.95;98443.50;1759544;81;21013;-42
2021/05/14 08:25:50;;;;;;;7.17;2.87;;;;;;;20.98;44.93;98452.06;1763884;81;21047;-42
2021/05/14 08:28:18;;;;;;;4.45;2.98;;;;;;;21.19;44.49;98455.42;1766700;81;21084;-43
2021/05/14 08:30:45;;;;;;;4.90;2.47;;;;;;;21.40;42.90;98461.31;1756959;81;21090;-42
2021/05/14 08:33:12;;;;;;;6.47;2.30;;;;;;;21.43;41.69;98448.78;1759995;81;21085;-42
2021/05/14 08:35:39;;;;;;;5.45;2.35;;;;;;;21.39;42.57;98448.77;1766484;80;21885;-42
2021/05/14 08:38:07;;;;;;;4.78;2.27;;;;;;;21.46;42.47;98445.72;1805420;79;21038;-42
2021/05/14 08:40:37;;;;;;;5.00;2.62;;;;;;;21.56;41.33;98450.04;1803796;79;20994;-43
2021/05/14 08:43:05;;;;;;;4.80;2.55;;;;;;;21.60;41.81;98446.52;1807495;79;20951;-42
2021/05/14 08:45:32;;;;;;;6.35;2.52;;;;;;;21.67;41.22;98447.63;1801366;79;20923;-43
2021/05/14 08:47:59;;;;;;;7.20;2.52;;;;;;;21.69;41.65;98452.06;1809490;79;21723;-42
2021/05/14 08:50:27;;;;;;;5.33;2.55;;;;;;;21.67;41.19;98453.14;1802025;79;21192;-42
2021/05/14 08:52:54;;;;;;;4.65;2.70;;;;;;;21.62;41.28;98456.50;1802993;79;21125;-43
2021/05/14 08:55:25;;;;;;;6.33;3.37;;;;;;;21.57;42.59;98454.34;1801142;79;20992;-42
2021/05/14 08:57:53;;;;;;;5.12;2.80;;;;;;;21.59;42.54;98454.66;1801445;79;20974;-42
2021/05/14 09:00:20;;;;;;;4.05;2.33;;;;;;;21.57;42.45;98459.25;1790012;79;21083;-42
2021/05/14 09:02:47;;;;;;;5.80;3.05;;;;;;;21.51;42.24;98456.92;1797722;79;21008;-42
2021/05/14 09:05:36;;;;;;;8.83;2.40;;;;;;;21.46;41.77;98469.16;1808800;79;20967;-42
2021/05/14 09:08:02;;;;;;;8.70;2.60;;;;;;;21.38;42.57;98474.80;1756577;81;20949;-42
2021/05/14 09:10:31;;;;;;;4.20;2.10;;;;;;;21.24;41.15;98474.14;1807604;79;21505;-42
2021/05/14 09:12:59;;;;;;;6.40;2.47;;;;;;;21.08;42.07;98474.31;1797535;79;21040;-43
2021/05/14 09:15:29;;;;;;;4.30;2.35;;;;;;;20.98;42.88;98471.35;1797065;79;21007;-42
2021/05/14 09:18:18;;;;;;;4.10;2.33;;;;;;;20.95;42.68;98472.87;1795023;79;21119;-43
2021/05/14 09:20:57;;;;;;;;;;;;;;;20.95;42.94;98468.73;1799935;79;21619;-42
2021/05/14 09:23:30;;;;;;;5.12;2.55;;;;;;;20.93;42.73;98467.03;1792430;79;20248;-42
2021/05/14 09:26:13;;;;;;;3.95;2.40;;;;;;;20.84;43.15;98467.75;1794040;79;21055;-42
2021/05/14 09:28:47;;;;;;;3.60;2.47;;;;;;;20.89;42.16;98464.41;1790683;79;21060;-42
2021/05/14 09:31:18;;;;;;;4.08;2.60;;;;;;;20.90;42.58;98470.09;1790716;79;21588;-42
2021/05/14 09:33:51;;;;;;;4.40;2.50;;;;;;;20.96;42.17;98465.51;1787809;79;21130;-42
2021/05/14 09:36:32;;;;;;;4.50;2.40;;;;;;;21.01;42.13;98475.95;1783358;79;20973;-42
2021/05/14 09:39:05;;;;;;;3.33;2.30;;;;;;;20.97;41.72;98463.52;1788605;79;21062;-42
2021/05/14 09:41:42;;;;;;;5.28;2.22;;;;;;;20.96;40.21;98463.39;1786926;79;20984;-43
2021/05/14 09:44:23;;;;;;;5.95;1.98;;;;;;;20.97;39.51;98462.92;1800392;79;20986;-42
2021/05/14 09:46:57;;;;;;;6.92;2.10;;;;;;;21.00;39.95;98465.40;1803651;79;20987;-42
2021/05/14 09:49:27;;;;;;;5.15;2.12;;;;;;;20.99;40.30;98460.49;1791241;79;21626;-42
2021/05/14 09:52:03;;;;;;;5.60;2.40;;;;;;;20.97;40.17;98462.92;1792395;79;21660;-42
2021/05/14 09:54:36;;;;;;;2.27;2.00;;;;;;;20.96;39.98;98462.75;1787121;79;21003;-43
2021/05/14 09:59:57;;;;;;;4.00;2.30;;;;;;;20.86;39.76;98450.17;1787565;80;21690;-42
2021/05/14 10:02:33;;;;;;;;;;;;;;;20.84;39.83;98460.86;1803488;79;21019;-42
2021/05/14 10:04:56;;;;;;;4.30;2.20;;;;;;;20.81;39.88;98456.26;1759925;80;21185;-42
2021/05/14 10:07:25;;;;;;;3.83;2.85;;;;;;;20.64;40.20;98455.67;1794687;79;20983;-42
2021/05/14 10:09:56;;;;;;;4.60;2.20;;;;;;;20.57;40.38;98450.44;1785698;79;21573;-42
2021/05/14 10:12:22;;;;;;;5.83;2.80;;;;;;;20.54;40.70;98449.17;1804067;79;20971;-42
2021/05/14 10:14:53;;;;;;;4.45;2.27;;;;;;;20.51;40.51;98452.83;1764957;80;21046;-42
2021/05/14 10:17:20;;;;;;;2.87;1.98;;;;;;;20.50;40.71;98445.78;1778694;80;21086;-42
2021/05/14 10:19:47;;;;;;;11.28;3.25;;;;;;;20.48;41.83;98448.97;1799725;79;21631;-42
2021/05/14 10:22:14;;;;;;;6.15;2.08;;;;;;;20.48;42.12;98442.09;1785988;79;20932;-42
2021/05/14 10:24:50;;;;;;;4.47;2.00;;;;;;;20.49;41.54;98440.11;1796048;79;20944;-42
2021/05/14 10:27:28;;;;;;;5.58;2.58;;;;;;;20.47;41.97;98440.58;1778203;79;21066;-42
2021/05/14 10:29:59;;;;;;;4.80;2.45;;;;;;;20.49;42.79;98442.86;1782911;79;21153;-43
2021/05/14 10:32:49;;;;;;;5.92;2.80;;;;;;;20.44;43.22;98439.30;1778680;79;21047;-42
2021/05/14 10:35:24;;;;;;;3.70;2.20;;;;;;;20.38;43.58;98441.25;1797045;79;21035;-42
2021/05/14 10:38:06;;;;;;;7.00;2.80;;;;;;;20.28;43.95;98445.12;1793272;79;21018;-42
2021/05/14 10:40:38;;;;;;;4.95;2.45;;;;;;;20.20;44.28;98445.21;1779233;79;20990;-42
2021/05/14 10:43:06;;;;;;;4.72;2.47;;;;;;;20.09;43.64;98435.17;1788832;79;21646;-42
2021/05/14 10:45:44;;;;;;;4.40;2.30;;;;;;;19.93;43.53;98455.98;1779391;79;21551;-42
2021/05/14 10:48:19;;;;;;;3.67;2.58;;;;;;;19.83;43.72;98443.34;1775434;79;21014;-41
2021/05/14 10:50:56;;;;;;;6.15;2.30;;;;;;;19.75;43.85;98439.30;1784701;79;20988;-42
2021/05/14 10:53:36;;;;;;;3.33;2.42;;;;;;;19.71;43.75;98448.25;1787145;79;21416;-42
2021/05/14 10:56:15;;;;;;;5.65;2.62;;;;;;;19.65;43.57;98441.79;1785451;79;21058;-42
2021/05/14 10:58:51;;;;;;;7.15;2.42;;;;;;;19.60;44.02;98445.09;1784157;79;20959;-42
2021/05/14 11:01:43;;;;;;;9.75;2.62;;;;;;;19.60;44.52;98451.97;1794626;79;21043;-42
2021/05/14 11:04:17;;;;;;;3.92;2.45;;;;;;;19.63;44.73;98447.72;1799065;79;20976;-42
2021/05/14 11:06:50;;;;;;;4.17;2.52;;;;;;;19.66;44.87;98452.93;1762029;80;21070;-42
2021/05/14 11:09:18;;;;;;;3.72;2.12;;;;;;;19.69;44.49;98445.19;1790222;80;21667;-42
2021/05/14 11:12:08;;;;;;;4.55;2.52;;;;;;;19.75;44.84;98450.30;1791041;80;21073;-43
2021/05/14 11:14:56;;;;;;;5.15;2.47;;;;;;;19.83;44.69;98457.09;1780703;78;22290;-42
2021/05/14 11:17:22;;;;;;;3.77;2.80;;;;;;;19.75;43.63;98433.80;1756323;80;21003;-43
2021/05/14 11:19:54;;;;;;;5.80;2.83;;;;;;;19.84;44.09;98453.14;1755526;81;20987;-42
2021/05/14 11:22:40;;;;;;;4.62;2.80;;;;;;;19.80;43.75;98451.13;1751497;80;21067;-42
2021/05/14 11:25:14;;;;;;;6.08;2.45;;;;;;;19.77;43.89;98457.48;1729213;81;21419;-41
2021/05/14 11:27:48;;;;;;;4.28;2.70;;;;;;;19.75;44.03;98448.92;1755459;81;20943;-41
2021/05/14 11:30:15;;;;;;;5.03;2.83;;;;;;;19.72;44.31;98447.05;1754749;81;21086;-42
2021/05/14 11:32:47;;;;;;;5.65;3.15;;;;;;;19.74;44.57;98450.91;1763856;80;21082;-46
2021/05/14 11:35:23;;;;;;;3.60;3.00;;;;;;;19.68;45.15;98447.16;1755639;81;21135;-42
2021/05/14 11:37:57;;;;;;;8.83;3.42;;;;;;;19.62;45.80;98455.80;1754028;81;21590;-42
2021/05/14 11:40:35;;;;;;;6.80;3.02;;;;;;;19.56;46.40;98455.44;1753714;81;20995;-42
2021/05/14 11:43:07;;;;;;;4.80;2.77;;;;;;;19.50;46.68;98455.99;1748456;81;21124;-41
2021/05/14 11:45:46;;;;;;;5.80;2.67;;;;;;;19.45;47.10;98451.65;1754104;81;21099;-42
2021/05/14 11:48:21;;;;;;;7.70;2.70;;;;;;;19.41;47.21;98444.84;1756695;80;21099;-41
2021/05/14 11:50:53;;;;;;;5.10;3.05;;;;;;;19.41;47.06;98446.20;1755910;81;20987;-41
2021/05/14 11:53:20;;;;;;;9.88;2.87;;;;;;;19.39;47.10;98439.63;1755586;81;21558;-41